createdAt,value
2023-02-26T00:01:40.394Z,3.65
2023-02-26T00:04:08.627Z,3.30
2023-02-26T00:06:39.314Z,4.10
2023-02-26T00:09:06.901Z,4.40
2023-02-26T00:11:34.768Z,4.00
2023-02-26T00:14:01.934Z,4.72
2023-02-26T00:16:36.299Z,3.75
2023-02-26T00:19:07.147Z,4.00
2023-02-26T00:21:36.087Z,4.03
2023-02-26T00:24:03.481Z,3.38
2023-02-26T00:26:32.343Z,3.63
2023-02-26T00:28:59.706Z,3.35
2023-02-26T00:31:27.335Z,3.88
2023-02-26T00:33:56.719Z,3.78
2023-02-26T00:36:38.148Z,3.60
2023-02-26T00:39:23.361Z,4.20
2023-02-26T00:41:50.604Z,3.83
2023-02-26T00:44:19.232Z,4.43
2023-02-26T00:47:10.393Z,3.63
2023-02-26T00:50:08.236Z,3.70
2023-02-26T00:52:50.074Z,3.63
2023-02-26T00:55:16.913Z,4.70
2023-02-26T00:57:44.418Z,3.55
2023-02-26T01:00:13.128Z,3.63
2023-02-26T01:02:41.182Z,3.60
2023-02-26T01:05:09.592Z,4.22
2023-02-26T01:08:21.877Z,4.10
2023-02-26T01:10:49.158Z,4.32
2023-02-26T01:13:16.418Z,4.70
2023-02-26T01:15:52.488Z,4.45
2023-02-26T01:18:27.576Z,3.83
2023-02-26T01:21:05.177Z,4.50
2023-02-26T01:23:40.674Z,4.30
2023-02-26T01:26:17.176Z,5.13
2023-02-26T01:28:44.663Z,6.07
2023-02-26T01:31:29.949Z,5.40
2023-02-26T01:34:04.913Z,4.78
2023-02-26T01:36:40.589Z,4.63
2023-02-26T01:39:34.680Z,4.88
2023-02-26T01:42:20.409Z,4.50
2023-02-26T01:45:15.061Z,4.88
2023-02-26T01:48:04.506Z,4.83
2023-02-26T01:50:35.328Z,4.93
2023-02-26T01:53:24.583Z,4.15
2023-02-26T01:56:06.667Z,4.68
2023-02-26T01:58:36.372Z,4.90
2023-02-26T02:01:04.688Z,5.70
2023-02-26T02:03:36.497Z,5.15
2023-02-26T02:06:09.625Z,4.97
2023-02-26T02:08:36.691Z,5.13
2023-02-26T02:11:07.665Z,5.35
2023-02-26T02:14:07.235Z,5.32
2023-02-26T02:16:53.297Z,5.00
2023-02-26T02:19:55.837Z,5.50
2023-02-26T02:22:52.887Z,5.00
2023-02-26T02:25:50.162Z,5.28
2023-02-26T02:28:27.199Z,4.90
2023-02-26T02:31:09.154Z,5.03
2023-02-26T02:34:02.500Z,4.20
2023-02-26T02:36:34.843Z,5.07
2023-02-26T02:39:23.205Z,4.50
2023-02-26T02:41:57.535Z,4.53
2023-02-26T02:44:27.994Z,4.95
2023-02-26T02:46:58.693Z,4.28
2023-02-26T02:49:37.870Z,4.53
2023-02-26T02:52:15.836Z,4.40
2023-02-26T02:54:49.647Z,4.55
2023-02-26T02:57:23.709Z,4.75
2023-02-26T03:00:08.828Z,5.07
2023-02-26T03:05:48.211Z,4.88
2023-02-26T03:08:21.416Z,3.90
2023-02-26T03:10:48.787Z,4.45
2023-02-26T03:13:21.955Z,4.65
2023-02-26T03:15:56.096Z,4.97
2023-02-26T03:18:37.705Z,3.97
2023-02-26T03:21:12.926Z,4.22
2023-02-26T03:24:21.304Z,4.43
2023-02-26T03:27:15.780Z,4.90
2023-02-26T03:29:56.675Z,5.20
2023-02-26T03:32:38.061Z,4.78
2023-02-26T03:35:09.347Z,5.13
2023-02-26T03:37:42.124Z,5.05
2023-02-26T03:40:22.649Z,5.07
2023-02-26T03:42:57.415Z,5.03
2023-02-26T03:47:58.590Z,5.22
2023-02-26T03:50:51.969Z,4.70
2023-02-26T03:53:29.360Z,5.10
2023-02-26T03:56:20.806Z,4.10
2023-02-26T03:58:47.793Z,4.53
2023-02-26T04:01:22.794Z,4.75
2023-02-26T04:04:25.034Z,4.45
2023-02-26T04:06:54.324Z,4.65
2023-02-26T04:09:22.228Z,4.05
2023-02-26T04:11:51.770Z,4.60
2023-02-26T04:14:18.614Z,4.47
2023-02-26T04:16:46.177Z,4.70
2023-02-26T04:19:13.316Z,3.97
2023-02-26T04:21:40.447Z,4.57
2023-02-26T04:24:07.610Z,4.20
2023-02-26T04:26:34.432Z,5.30
2023-02-26T04:29:01.222Z,5.18
2023-02-26T04:31:28.030Z,4.65
2023-02-26T04:33:54.938Z,4.38
2023-02-26T04:36:22.663Z,4.55
2023-02-26T04:38:49.798Z,4.40
2023-02-26T04:41:16.643Z,4.63
2023-02-26T04:43:43.602Z,3.65
2023-02-26T04:46:10.468Z,4.18
2023-02-26T04:48:37.530Z,4.32
2023-02-26T04:51:04.921Z,4.50
2023-02-26T04:53:31.708Z,3.80
2023-02-26T04:55:58.516Z,4.43
2023-02-26T04:58:25.862Z,4.40
2023-02-26T05:00:56.722Z,3.60
2023-02-26T05:03:23.598Z,4.28
2023-02-26T05:05:50.504Z,3.63
2023-02-26T05:08:17.445Z,3.75
2023-02-26T05:10:44.376Z,4.22
2023-02-26T05:13:11.309Z,3.85
2023-02-26T05:15:38.141Z,4.03
2023-02-26T05:18:05.094Z,3.55
2023-02-26T05:20:31.939Z,3.50
2023-02-26T05:22:58.826Z,4.03
2023-02-26T05:25:25.750Z,4.00
2023-02-26T05:27:53.104Z,3.88
2023-02-26T05:30:19.985Z,3.80
2023-02-26T05:32:46.804Z,3.97
2023-02-26T05:35:13.974Z,4.15
2023-02-26T05:37:40.822Z,3.83
2023-02-26T05:40:11.114Z,3.90
2023-02-26T05:42:39.743Z,3.90
2023-02-26T05:45:08.310Z,3.33
2023-02-26T05:47:35.947Z,3.08
2023-02-26T05:50:05.417Z,3.17
2023-02-26T05:52:32.462Z,3.20
2023-02-26T05:54:59.474Z,3.65
2023-02-26T05:57:26.278Z,3.65
2023-02-26T05:59:53.224Z,3.45
2023-02-26T06:02:20.267Z,3.45
2023-02-26T06:04:47.098Z,3.92
2023-02-26T06:07:14.290Z,3.28
2023-02-26T06:09:41.113Z,3.70
2023-02-26T06:12:08.776Z,4.05
2023-02-26T06:14:36.534Z,3.75
2023-02-26T06:17:05.424Z,3.50
2023-02-26T06:19:32.910Z,3.97
2023-02-26T06:21:59.905Z,2.90
2023-02-26T06:24:26.841Z,4.03
2023-02-26T06:26:53.744Z,3.88
2023-02-26T06:29:21.060Z,4.13
2023-02-26T06:31:48.535Z,3.83
2023-02-26T06:34:16.053Z,3.25
2023-02-26T06:36:43.289Z,3.80
2023-02-26T06:39:10.289Z,4.18
2023-02-26T06:41:37.378Z,4.03
2023-02-26T06:44:04.361Z,4.18
2023-02-26T06:46:31.830Z,4.22
2023-02-26T06:48:58.651Z,4.13
2023-02-26T06:51:25.452Z,4.00
2023-02-26T06:53:52.262Z,3.90
2023-02-26T06:56:19.334Z,3.88
2023-02-26T06:58:46.104Z,4.05
2023-02-26T07:01:13.267Z,4.20
2023-02-26T07:03:40.254Z,5.00
2023-02-26T07:06:25.999Z,3.90
2023-02-26T07:08:53.260Z,4.32
2023-02-26T07:11:20.074Z,4.25
2023-02-26T07:13:46.903Z,4.63
2023-02-26T07:16:13.880Z,5.03
2023-02-26T07:18:41.045Z,4.38
2023-02-26T07:21:07.878Z,4.13
2023-02-26T07:23:34.872Z,4.32
2023-02-26T07:26:02.528Z,4.90
2023-02-26T07:28:29.348Z,4.25
2023-02-26T07:30:57.350Z,4.95
2023-02-26T07:33:25.230Z,4.10
2023-02-26T07:35:52.098Z,3.97
2023-02-26T07:38:19.718Z,5.47
2023-02-26T07:40:47.827Z,5.57
2023-02-26T07:43:14.700Z,5.28
2023-02-26T07:45:41.532Z,4.93
2023-02-26T07:48:08.440Z,5.43
2023-02-26T07:50:35.230Z,5.20
2023-02-26T07:53:02.112Z,5.00
2023-02-26T07:55:30.050Z,5.13
2023-02-26T07:57:56.871Z,4.88
2023-02-26T08:00:23.988Z,5.60
2023-02-26T08:02:50.769Z,5.40
2023-02-26T08:05:17.845Z,4.85
2023-02-26T08:07:44.628Z,5.35
2023-02-26T08:10:12.760Z,5.40
2023-02-26T08:12:39.899Z,5.72
2023-02-26T08:15:07.714Z,5.32
2023-02-26T08:17:34.586Z,4.80
2023-02-26T08:20:01.684Z,5.18
2023-02-26T08:22:28.502Z,5.85
2023-02-26T08:24:56.122Z,6.10
2023-02-26T08:27:22.926Z,5.80
2023-02-26T08:29:50.506Z,6.00
2023-02-26T08:32:20.116Z,4.97
2023-02-26T08:34:47.361Z,5.38
2023-02-26T08:37:15.124Z,5.50
2023-02-26T08:39:42.041Z,5.40
2023-02-26T08:42:10.298Z,5.00
2023-02-26T08:44:37.150Z,6.45
2023-02-26T08:47:04.094Z,6.55
2023-02-26T08:49:31.692Z,5.55
2023-02-26T08:51:58.678Z,5.13
2023-02-26T08:54:25.703Z,4.95
2023-02-26T08:56:55.934Z,4.63
2023-02-26T08:59:22.796Z,4.93
2023-02-26T09:01:49.828Z,4.65
2023-02-26T09:04:16.877Z,4.78
2023-02-26T09:06:44.077Z,4.50
2023-02-26T09:09:11.098Z,4.65
2023-02-26T09:11:37.955Z,4.25
2023-02-26T09:14:05.534Z,4.47
2023-02-26T09:16:35.893Z,3.20
2023-02-26T09:19:04.944Z,2.75
2023-02-26T09:21:32.109Z,2.50
2023-02-26T09:23:58.989Z,2.42
2023-02-26T09:26:26.619Z,1.95
2023-02-26T09:28:53.696Z,2.17
2023-02-26T09:31:20.713Z,2.13
2023-02-26T09:33:47.869Z,2.30
2023-02-26T09:36:15.284Z,2.80
2023-02-26T09:38:43.483Z,3.13
2023-02-26T09:41:21.876Z,2.75
2023-02-26T09:43:58.830Z,2.17
2023-02-26T09:47:18.362Z,2.05
2023-02-26T09:50:10.018Z,1.70
2023-02-26T09:53:03.973Z,2.22
2023-02-26T09:55:38.955Z,2.10
2023-02-26T10:01:14.526Z,2.65
2023-02-26T10:04:08.688Z,2.05
2023-02-26T10:06:41.429Z,2.20
2023-02-26T10:09:20.257Z,2.05
2023-02-26T10:12:01.325Z,2.00
2023-02-26T10:14:42.747Z,2.10
2023-02-26T10:17:25.100Z,2.42
2023-02-26T10:20:00.405Z,2.38
2023-02-26T10:22:45.217Z,1.98
2023-02-26T10:25:22.746Z,2.38
2023-02-26T10:28:38.629Z,1.90
2023-02-26T10:31:34.713Z,2.47
2023-02-26T10:34:32.957Z,2.47
2023-02-26T10:37:59.297Z,1.73
2023-02-26T10:40:46.109Z,1.30
2023-02-26T10:43:23.436Z,2.22
2023-02-26T10:45:59.342Z,1.80
2023-02-26T10:49:29.979Z,2.13
2023-02-26T10:51:58.369Z,1.98
2023-02-26T10:54:39.695Z,1.63
2023-02-26T10:57:19.263Z,2.15
2023-02-26T10:59:46.076Z,1.85
2023-02-26T11:02:46.897Z,1.73
2023-02-26T11:05:20.701Z,2.10
2023-02-26T11:07:52.606Z,1.88
2023-02-26T11:10:27.737Z,2.15
2023-02-26T11:12:54.829Z,1.70
2023-02-26T11:15:26.418Z,1.73
2023-02-26T11:17:58.919Z,1.73
2023-02-26T11:20:43.145Z,1.67
2023-02-26T11:23:23.386Z,1.70
2023-02-26T11:26:05.488Z,2.10
2023-02-26T11:28:45.410Z,2.25
2023-02-26T11:31:16.652Z,1.67
2023-02-26T11:33:59.380Z,1.70
2023-02-26T11:36:31.865Z,2.20
2023-02-26T11:39:05.448Z,1.65
2023-02-26T11:41:38.432Z,1.63
2023-02-26T11:44:15.061Z,1.70
2023-02-26T11:46:51.780Z,1.58
2023-02-26T11:49:23.173Z,1.65
2023-02-26T11:52:08.931Z,1.60
2023-02-26T11:54:38.984Z,2.22
2023-02-26T11:57:21.424Z,1.67
2023-02-26T11:59:52.440Z,2.15
2023-02-26T12:02:24.291Z,1.90
2023-02-26T12:05:01.166Z,1.98
2023-02-26T12:07:28.450Z,2.05
2023-02-26T12:09:55.329Z,2.72
2023-02-26T12:12:38.987Z,1.90
2023-02-26T12:15:23.424Z,1.40
2023-02-26T12:18:03.712Z,1.70
2023-02-26T12:20:43.354Z,1.50
2023-02-26T12:23:34.808Z,1.80
2023-02-26T12:26:07.487Z,2.10
2023-02-26T12:28:39.954Z,1.60
2023-02-26T12:31:40.311Z,1.83
2023-02-26T12:34:33.635Z,1.55
2023-02-26T12:37:25.316Z,1.85
2023-02-26T12:40:31.118Z,2.08
2023-02-26T12:43:36.495Z,1.85
2023-02-26T12:46:44.231Z,1.77
2023-02-26T12:49:51.390Z,2.20
2023-02-26T12:53:02.405Z,1.70
2023-02-26T12:55:41.330Z,2.50
2023-02-26T12:58:36.010Z,1.90
2023-02-26T13:01:21.878Z,2.30
2023-02-26T13:04:39.793Z,1.92
2023-02-26T13:07:50.210Z,2.20
2023-02-26T13:11:01.545Z,1.90
2023-02-26T13:13:55.384Z,2.25
2023-02-26T13:17:03.553Z,2.35
2023-02-26T13:19:55.856Z,2.95
2023-02-26T13:22:43.869Z,1.80
2023-02-26T13:25:26.367Z,2.00
2023-02-26T13:27:57.601Z,2.22
2023-02-26T13:30:43.586Z,2.40
2023-02-26T13:33:20.740Z,2.13
2023-02-26T13:35:50.508Z,2.55
2023-02-26T13:38:29.125Z,2.35
2023-02-26T13:41:14.667Z,2.22
2023-02-26T13:46:48.137Z,2.08
2023-02-26T13:49:27.249Z,1.98
2023-02-26T13:51:55.530Z,2.60
2023-02-26T13:54:22.600Z,2.40
2023-02-26T13:57:23.110Z,2.25
2023-02-26T14:00:15.690Z,2.47
2023-02-26T14:02:59.701Z,2.45
2023-02-26T14:06:08.069Z,1.95
2023-02-26T14:08:40.443Z,2.05
2023-02-26T14:11:42.856Z,1.70
2023-02-26T14:14:35.668Z,1.80
2023-02-26T14:17:08.525Z,1.40
2023-02-26T14:19:52.450Z,1.40
2023-02-26T14:22:26.374Z,1.50
2023-02-26T14:25:22.814Z,1.73
2023-02-26T14:27:50.897Z,1.92
2023-02-26T14:30:34.795Z,1.85
2023-02-26T14:33:03.514Z,1.50
2023-02-26T14:35:38.624Z,2.10
2023-02-26T14:38:32.625Z,1.63
2023-02-26T14:41:09.673Z,1.67
2023-02-26T14:43:59.000Z,1.90
2023-02-26T14:46:26.153Z,2.40
2023-02-26T14:48:53.277Z,1.73
2023-02-26T14:51:42.104Z,2.03
2023-02-26T14:54:48.917Z,2.13
2023-02-26T14:57:28.019Z,2.10
2023-02-26T15:00:31.974Z,2.22
2023-02-26T15:03:34.241Z,1.63
2023-02-26T15:06:22.888Z,2.00
2023-02-26T15:09:12.063Z,1.50
2023-02-26T15:12:01.112Z,1.88
2023-02-26T15:14:53.529Z,1.60
2023-02-26T15:17:32.210Z,2.00
2023-02-26T15:20:11.023Z,1.90
2023-02-26T15:22:51.456Z,2.30
2023-02-26T15:25:39.376Z,1.40
2023-02-26T15:28:11.338Z,1.58
2023-02-26T15:30:38.622Z,1.92
2023-02-26T15:33:13.254Z,1.88
2023-02-26T15:35:40.661Z,1.77
2023-02-26T15:38:09.295Z,1.92
2023-02-26T15:40:40.186Z,1.90
2023-02-26T15:43:10.394Z,1.60
2023-02-26T15:45:44.991Z,1.90
2023-02-26T15:48:20.609Z,2.22
2023-02-26T15:50:53.797Z,2.10
2023-02-26T15:53:49.609Z,2.15
2023-02-26T15:59:01.147Z,1.88
2023-02-26T16:01:31.002Z,2.05
2023-02-26T16:04:01.692Z,1.60
2023-02-26T16:06:47.845Z,1.70
2023-02-26T16:09:26.619Z,1.75
2023-02-26T16:12:01.170Z,1.80
2023-02-26T16:14:36.167Z,2.08
2023-02-26T16:19:39.383Z,1.60
2023-02-26T16:22:31.720Z,1.80
2023-02-26T16:25:08.453Z,1.65
2023-02-26T16:27:36.358Z,2.08
2023-02-26T16:30:05.984Z,1.67
2023-02-26T16:32:35.568Z,1.50
2023-02-26T16:35:15.819Z,1.95
2023-02-26T16:37:50.141Z,2.08
2023-02-26T16:40:33.737Z,1.98
2023-02-26T16:43:06.188Z,2.20
2023-02-26T16:45:36.340Z,2.50
2023-02-26T16:48:10.219Z,2.20
2023-02-26T16:50:38.106Z,3.25
2023-02-26T16:53:17.647Z,3.08
2023-02-26T16:55:52.641Z,2.20
2023-02-26T17:00:53.446Z,2.80
2023-02-26T17:03:24.076Z,2.03
2023-02-26T17:05:58.386Z,2.90
2023-02-26T17:08:42.698Z,3.13
2023-02-26T17:11:20.848Z,2.40
2023-02-26T17:14:04.559Z,5.10
2023-02-26T17:16:31.444Z,5.15
2023-02-26T17:18:58.569Z,5.43
2023-02-26T17:21:25.630Z,3.60
2023-02-26T17:23:52.841Z,3.33
2023-02-26T17:26:19.793Z,3.25
2023-02-26T17:28:46.719Z,2.95
2023-02-26T17:31:15.284Z,4.00
2023-02-26T17:33:43.529Z,4.70
2023-02-26T17:36:16.783Z,4.25
2023-02-26T17:38:47.195Z,4.40
2023-02-26T17:41:18.102Z,4.68
2023-02-26T17:43:45.467Z,4.05
2023-02-26T17:46:14.066Z,4.53
2023-02-26T17:48:41.019Z,4.50
2023-02-26T17:51:09.616Z,4.28
2023-02-26T17:53:41.894Z,5.85
2023-02-26T17:56:27.124Z,4.53
2023-02-26T18:01:24.332Z,4.22
2023-02-26T18:03:51.492Z,4.35
2023-02-26T18:06:18.630Z,3.47
2023-02-26T18:08:46.887Z,2.63
2023-02-26T18:11:20.510Z,2.33
2023-02-26T18:13:47.954Z,2.20
2023-02-26T18:16:22.561Z,1.90
2023-02-26T18:18:49.821Z,1.85
2023-02-26T18:21:16.602Z,1.77
2023-02-26T18:23:43.473Z,1.98
2023-02-26T18:26:11.723Z,1.70
2023-02-26T18:28:38.843Z,1.90
2023-02-26T18:31:09.359Z,3.78
2023-02-26T18:33:38.970Z,4.38
2023-02-26T18:36:06.596Z,5.85
2023-02-26T18:38:34.786Z,5.05
2023-02-26T18:41:02.375Z,3.95
2023-02-26T18:43:30.531Z,3.70
2023-02-26T18:46:01.544Z,3.78
2023-02-26T18:48:28.877Z,3.80
2023-02-26T18:50:56.133Z,3.80
2023-02-26T18:53:24.774Z,4.50
2023-02-26T18:55:53.662Z,3.83
2023-02-26T18:58:22.066Z,3.83
2023-02-26T19:00:49.173Z,4.40
2023-02-26T19:03:16.518Z,6.10
2023-02-26T19:05:43.393Z,7.18
2023-02-26T19:08:11.401Z,6.70
2023-02-26T19:10:39.185Z,7.32
2023-02-26T19:13:06.158Z,9.15
2023-02-26T19:15:33.127Z,10.02
2023-02-26T19:17:59.988Z,11.15
2023-02-26T19:20:26.949Z,10.68
2023-02-26T19:22:53.819Z,10.30
2023-02-26T19:25:24.512Z,9.70
2023-02-26T19:27:53.770Z,11.20
2023-02-26T19:30:23.388Z,11.18
2023-02-26T19:32:51.893Z,12.30
2023-02-26T19:35:19.778Z,14.57
2023-02-26T19:37:47.202Z,15.20
2023-02-26T19:40:17.024Z,14.90
2023-02-26T19:42:44.828Z,16.75
2023-02-26T19:45:14.068Z,19.73
2023-02-26T19:47:41.161Z,18.23
2023-02-26T19:50:09.937Z,17.60
2023-02-26T19:52:37.493Z,16.80
2023-02-26T19:55:09.238Z,15.73
2023-02-26T19:57:36.810Z,14.35
2023-02-26T20:00:05.790Z,12.50
2023-02-26T20:02:33.091Z,14.93
2023-02-26T20:05:00.105Z,18.77
2023-02-26T20:07:27.162Z,19.00
2023-02-26T20:09:53.935Z,20.20
2023-02-26T20:12:21.343Z,19.50
2023-02-26T20:14:48.344Z,17.77
2023-02-26T20:17:15.281Z,18.88
2023-02-26T20:19:42.282Z,22.08
2023-02-26T20:22:09.127Z,18.10
2023-02-26T20:24:36.525Z,18.50
2023-02-26T20:27:03.601Z,17.35
2023-02-26T20:29:30.963Z,17.58
2023-02-26T20:31:59.298Z,15.35
2023-02-26T20:34:26.657Z,12.30
2023-02-26T20:36:55.800Z,10.25
2023-02-26T20:39:23.731Z,9.77
2023-02-26T20:41:50.980Z,7.78
2023-02-26T20:44:18.095Z,7.47
2023-02-26T20:46:45.186Z,7.85
2023-02-26T20:49:12.335Z,8.30
2023-02-26T20:51:41.250Z,9.48
2023-02-26T20:54:10.106Z,8.90
2023-02-26T20:56:36.980Z,9.48
2023-02-26T20:59:03.862Z,9.70
2023-02-26T21:01:35.738Z,11.75
2023-02-26T21:04:08.861Z,12.32
2023-02-26T21:06:37.016Z,11.60
2023-02-26T21:09:05.753Z,19.90
2023-02-26T21:11:36.641Z,27.52
2023-02-26T21:14:06.120Z,20.58
2023-02-26T21:16:33.155Z,12.23
2023-02-26T21:19:02.319Z,13.13
2023-02-26T21:21:29.440Z,11.75
2023-02-26T21:23:57.024Z,10.07
2023-02-26T21:26:24.356Z,8.10
2023-02-26T21:28:51.166Z,7.70
2023-02-26T21:31:20.304Z,7.10
2023-02-26T21:33:47.276Z,19.42
2023-02-26T21:36:14.620Z,13.40
2023-02-26T21:38:42.724Z,11.38
2023-02-26T21:41:09.550Z,10.25
2023-02-26T21:43:36.599Z,8.80
2023-02-26T21:46:04.325Z,7.90
2023-02-26T21:48:31.230Z,7.68
2023-02-26T21:50:59.958Z,9.35
2023-02-26T21:53:27.974Z,11.52
2023-02-26T21:55:55.746Z,9.13
2023-02-26T21:58:22.816Z,8.23
2023-02-26T22:00:50.132Z,7.28
2023-02-26T22:03:17.472Z,7.97
2023-02-26T22:05:44.496Z,8.23
2023-02-26T22:08:11.479Z,7.50
2023-02-26T22:10:38.733Z,9.80
2023-02-26T22:13:05.527Z,10.95
2023-02-26T22:15:32.439Z,9.88
2023-02-26T22:18:00.401Z,10.32
2023-02-26T22:20:28.468Z,9.88
2023-02-26T22:22:58.189Z,9.48
2023-02-26T22:25:26.742Z,8.95
2023-02-26T22:27:55.681Z,9.38
2023-02-26T22:30:24.131Z,9.43
2023-02-26T22:32:51.629Z,9.82
2023-02-26T22:35:20.876Z,9.80
2023-02-26T22:37:49.524Z,8.88
2023-02-26T22:40:17.237Z,8.55
2023-02-26T22:42:45.891Z,9.02
2023-02-26T22:45:17.696Z,9.40
2023-02-26T22:47:45.851Z,8.98
2023-02-26T22:50:15.352Z,9.15
2023-02-26T22:52:43.504Z,9.00
2023-02-26T22:55:11.897Z,8.88
2023-02-26T22:57:39.009Z,9.23
2023-02-26T23:00:12.436Z,8.82
2023-02-26T23:02:39.468Z,9.15
2023-02-26T23:05:09.495Z,8.05
2023-02-26T23:07:39.116Z,8.13
2023-02-26T23:10:09.074Z,8.63
2023-02-26T23:12:36.290Z,7.30
2023-02-26T23:15:03.320Z,7.47
2023-02-26T23:17:30.540Z,7.18
2023-02-26T23:19:57.690Z,8.38
2023-02-26T23:22:24.580Z,8.40
2023-02-26T23:24:51.503Z,9.07
2023-02-26T23:27:18.940Z,11.80
2023-02-26T23:29:45.920Z,15.15
2023-02-26T23:32:14.477Z,12.73
2023-02-26T23:34:41.470Z,13.50
2023-02-26T23:37:08.426Z,14.48
2023-02-26T23:39:35.198Z,11.93
2023-02-26T23:42:02.044Z,12.48
2023-02-26T23:44:29.079Z,11.95
2023-02-26T23:46:55.886Z,10.13
2023-02-26T23:49:22.665Z,9.85
2023-02-26T23:51:49.464Z,10.38
2023-02-26T23:54:16.323Z,10.80
2023-02-26T23:56:43.090Z,11.25
2023-02-26T23:59:10.338Z,9.82
